Time;durP1;ratioP1;P1;durP2;ratioP2;P2;SDS_P1;SDS_P2;PMS_P1;PMS_P2;Temp;Humidity;BMP_temperature;BMP_pressure;BME280_temperature;BME280_humidity;BME280_pressure;Samples;Min_cycle;Max_cycle;Signal;HPM_P1;HPM_P2
2022/11/29 00:00:34;;;;;;;89.25;23.55;;;;;;;;;;5132056;27;20046;-72
2022/11/29 00:03:00;;;;;;;89.85;22.23;;;;;;;;;;5130960;27;20051;-71
2022/11/29 00:05:26;;;;;;;91.43;23.10;;;;;;;;;;5122495;27;20058;-71
2022/11/29 00:07:52;;;;;;;121.07;24.70;;;;;;;;;;5131221;27;20046;-72
2022/11/29 00:10:18;;;;;;;105.13;21.88;;;;;;;;;;5131138;27;20127;-71
2022/11/29 00:12:47;;;;;;;143.40;27.92;;;;;;;;;;5133733;27;20039;-72
2022/11/29 00:15:14;;;;;;;123.25;25.98;;;;;;;;;;5131108;27;20499;-72
2022/11/29 00:17:40;;;;;;;126.68;25.02;;;;;;;;;;5130260;27;20035;-72
2022/11/29 00:20:08;;;;;;;95.32;24.13;;;;;;;;;;5120965;27;20067;-72
2022/11/29 00:22:34;;;;;;;106.45;23.58;;;;;;;;;;5125477;27;20509;-71
2022/11/29 00:25:00;;;;;;;122.28;25.77;;;;;;;;;;5122096;27;20043;-72
2022/11/29 00:27:26;;;;;;;130.48;24.58;;;;;;;;;;5133603;27;20038;-71
2022/11/29 00:29:52;;;;;;;94.63;23.27;;;;;;;;;;5133248;27;20505;-72
2022/11/29 00:32:18;;;;;;;149.52;26.25;;;;;;;;;;5131663;27;20047;-72
2022/11/29 00:34:44;;;;;;;137.27;26.48;;;;;;;;;;5131658;27;20485;-71
2022/11/29 00:37:10;;;;;;;131.88;26.38;;;;;;;;;;5132362;28;20043;-71
2022/11/29 00:39:36;;;;;;;137.85;25.17;;;;;;;;;;5129425;28;20516;-72
2022/11/29 00:42:02;;;;;;;133.10;23.95;;;;;;;;;;5132592;27;20434;-72
2022/11/29 00:44:28;;;;;;;110.13;24.65;;;;;;;;;;5134979;27;20039;-72
2022/11/29 00:46:54;;;;;;;135.00;23.75;;;;;;;;;;5136384;27;20046;-71
2022/11/29 00:49:20;;;;;;;134.98;25.33;;;;;;;;;;5134363;27;20075;-72
2022/11/29 00:51:46;;;;;;;125.68;24.92;;;;;;;;;;5136225;27;20073;-71
2022/11/29 00:54:12;;;;;;;139.43;24.85;;;;;;;;;;5135591;27;20047;-71
2022/11/29 00:56:38;;;;;;;110.18;23.30;;;;;;;;;;5134029;27;20043;-71
2022/11/29 00:59:04;;;;;;;112.70;23.20;;;;;;;;;;5137173;27;20060;-72
2022/11/29 01:01:30;;;;;;;123.25;24.17;;;;;;;;;;5134323;27;20101;-72
2022/11/29 01:03:56;;;;;;;129.05;24.05;;;;;;;;;;5133583;27;20035;-71
2022/11/29 01:06:23;;;;;;;187.52;27.70;;;;;;;;;;5121539;27;20039;-71
2022/11/29 01:08:49;;;;;;;188.25;26.50;;;;;;;;;;5109926;27;20049;-72
2022/11/29 01:11:20;;;;;;;122.80;23.52;;;;;;;;;;5135254;27;20085;-72
2022/11/29 01:13:46;;;;;;;129.77;24.35;;;;;;;;;;5128007;27;20067;-72
2022/11/29 01:16:13;;;;;;;167.52;26.95;;;;;;;;;;5136906;27;20039;-72
2022/11/29 01:18:40;;;;;;;160.30;26.42;;;;;;;;;;5136556;27;20443;-72
2022/11/29 01:21:07;;;;;;;169.38;26.83;;;;;;;;;;5135844;27;20046;-72
2022/11/29 01:23:34;;;;;;;194.85;27.80;;;;;;;;;;5133977;27;20379;-71
2022/11/29 01:26:01;;;;;;;126.50;23.60;;;;;;;;;;5129811;27;20383;-72
2022/11/29 01:28:28;;;;;;;115.95;23.60;;;;;;;;;;5120370;27;20042;-72
2022/11/29 01:30:54;;;;;;;156.20;25.63;;;;;;;;;;5127093;27;20498;-72
2022/11/29 01:33:20;;;;;;;197.82;27.63;;;;;;;;;;5135046;27;20043;-72
2022/11/29 01:35:55;;;;;;;173.40;26.95;;;;;;;;;;5134647;27;20490;-71
2022/11/29 01:38:22;;;;;;;149.27;26.08;;;;;;;;;;5135982;27;20560;-71
2022/11/29 01:40:58;;;;;;;171.82;26.45;;;;;;;;;;5130579;27;20051;-72
2022/11/29 01:43:24;;;;;;;131.93;24.88;;;;;;;;;;5134646;27;20046;-72
2022/11/29 01:45:50;;;;;;;175.30;27.23;;;;;;;;;;5135074;27;20381;-72
2022/11/29 01:48:17;;;;;;;168.07;27.67;;;;;;;;;;5128215;27;20054;-72
2022/11/29 01:50:43;;;;;;;137.77;26.63;;;;;;;;;;5135069;27;20035;-72
2022/11/29 01:53:11;;;;;;;139.82;26.17;;;;;;;;;;5117140;27;20039;-72
2022/11/29 01:55:38;;;;;;;230.70;29.58;;;;;;;;;;5135200;27;20054;-72
2022/11/29 01:58:06;;;;;;;135.48;25.77;;;;;;;;;;5135279;27;20042;-72
2022/11/29 02:00:32;;;;;;;192.60;28.70;;;;;;;;;;5128616;27;20528;-72
2022/11/29 02:03:11;;;;;;;183.27;28.25;;;;;;;;;;5132523;27;20039;-72
2022/11/29 02:05:40;;;;;;;165.98;28.67;;;;;;;;;;5134098;27;20128;-71
2022/11/29 02:08:07;;;;;;;183.38;28.88;;;;;;;;;;5131688;27;20043;-71
2022/11/29 02:10:52;;;;;;;141.60;26.08;;;;;;;;;;5134073;27;20536;-71
2022/11/29 02:13:44;;;;;;;161.32;28.50;;;;;;;;;;5134241;27;20092;-71
2022/11/29 02:16:22;;;;;;;149.55;27.33;;;;;;;;;;5104396;27;20481;-71
2022/11/29 02:18:59;;;;;;;175.07;26.90;;;;;;;;;;5124269;27;20039;-72
2022/11/29 02:21:31;;;;;;;175.25;27.13;;;;;;;;;;5130337;27;20044;-72
2022/11/29 02:24:06;;;;;;;145.73;26.73;;;;;;;;;;5128597;27;20498;-72
2022/11/29 02:26:54;;;;;;;169.65;27.48;;;;;;;;;;5116656;27;20055;-71
2022/11/29 02:29:31;;;;;;;164.35;25.88;;;;;;;;;;5128403;27;20035;-72
2022/11/29 02:32:03;;;;;;;180.10;27.73;;;;;;;;;;5135946;27;20046;-71
2022/11/29 02:34:52;;;;;;;162.60;27.40;;;;;;;;;;5127001;27;20046;-71
2022/11/29 02:37:48;;;;;;;137.52;26.67;;;;;;;;;;5135265;27;20046;-71
2022/11/29 02:40:14;;;;;;;147.23;25.90;;;;;;;;;;5051953;28;20053;-72
2022/11/29 02:42:49;;;;;;;161.23;26.65;;;;;;;;;;5051521;28;20045;-72
2022/11/29 02:45:33;;;;;;;161.18;25.80;;;;;;;;;;5051248;28;20049;-72
2022/11/29 02:48:00;;;;;;;185.30;26.55;;;;;;;;;;5051524;28;20404;-72
2022/11/29 02:50:31;;;;;;;159.30;27.70;;;;;;;;;;5057670;28;20057;-72
2022/11/29 02:53:08;;;;;;;148.57;24.98;;;;;;;;;;5051584;28;20052;-72
2022/11/29 02:55:34;;;;;;;125.70;23.80;;;;;;;;;;5051025;28;20045;-72
2022/11/29 02:58:15;;;;;;;145.02;26.88;;;;;;;;;;5041419;28;20060;-72
2022/11/29 03:00:46;;;;;;;174.45;27.80;;;;;;;;;;5033956;28;20077;-71
2022/11/29 03:03:17;;;;;;;135.05;24.70;;;;;;;;;;5049529;28;20049;-71
2022/11/29 03:06:02;;;;;;;197.23;26.73;;;;;;;;;;5039345;28;20103;-72
2022/11/29 03:08:37;;;;;;;225.68;27.70;;;;;;;;;;5045271;28;20044;-72
2022/11/29 03:11:21;;;;;;;202.52;26.25;;;;;;;;;;5049348;28;20507;-72
2022/11/29 03:13:56;;;;;;;231.75;26.30;;;;;;;;;;5049682;28;20048;-72
2022/11/29 03:16:40;;;;;;;147.05;25.02;;;;;;;;;;5084281;27;20047;-71
2022/11/29 03:19:09;;;;;;;142.95;23.63;;;;;;;;;;5133055;27;20449;-72
2022/11/29 03:21:41;;;;;;;176.20;25.25;;;;;;;;;;5133430;27;20427;-71
2022/11/29 03:24:15;;;;;;;162.05;25.02;;;;;;;;;;5133934;27;20039;-71
2022/11/29 03:26:43;;;;;;;127.18;23.15;;;;;;;;;;5127235;27;20409;-72
2022/11/29 03:29:12;;;;;;;135.10;22.48;;;;;;;;;;5129688;27;20047;-71
2022/11/29 03:31:43;;;;;;;141.98;24.45;;;;;;;;;;5131003;27;20054;-72
2022/11/29 03:34:20;;;;;;;144.10;23.60;;;;;;;;;;5133890;27;20095;-72
2022/11/29 03:37:04;;;;;;;117.57;22.75;;;;;;;;;;5133952;27;20046;-71
2022/11/29 03:39:36;;;;;;;128.05;22.15;;;;;;;;;;5123845;27;20520;-72
2022/11/29 03:42:04;;;;;;;148.93;24.33;;;;;;;;;;5121394;27;20234;-72
2022/11/29 03:44:35;;;;;;;179.13;25.40;;;;;;;;;;5131939;27;20478;-71
2022/11/29 03:47:01;;;;;;;;;;;;;;;;;;5129790;27;20054;-71
2022/11/29 03:49:46;;;;;;;155.43;22.95;;;;;;;;;;5133649;27;19967;-72
2022/11/29 03:52:17;;;;;;;182.43;25.95;;;;;;;;;;5132902;27;20402;-71
2022/11/29 03:55:02;;;;;;;161.68;25.10;;;;;;;;;;5133195;27;20039;-72
2022/11/29 03:57:33;;;;;;;213.88;26.38;;;;;;;;;;5113282;27;20063;-72
2022/11/29 04:00:03;;;;;;;143.45;24.48;;;;;;;;;;5130391;27;20047;-71
2022/11/29 04:02:48;;;;;;;128.30;24.17;;;;;;;;;;5132492;27;20050;-72
2022/11/29 04:05:30;;;;;;;196.18;26.98;;;;;;;;;;5113713;28;20048;-72
2022/11/29 04:07:56;;;;;;;;;;;;;;;;;;5127006;27;20050;-72
2022/11/29 04:10:33;;;;;;;115.85;22.55;;;;;;;;;;5132541;27;20285;-71
2022/11/29 04:13:15;;;;;;;163.77;25.50;;;;;;;;;;5131987;27;20512;-72
2022/11/29 04:15:44;;;;;;;180.82;26.25;;;;;;;;;;5132389;27;20493;-72
2022/11/29 04:18:28;;;;;;;201.32;27.55;;;;;;;;;;5131484;27;20095;-72
2022/11/29 04:21:13;;;;;;;255.00;29.35;;;;;;;;;;5132938;27;20051;-72
2022/11/29 04:23:55;;;;;;;131.60;25.08;;;;;;;;;;5120137;27;20118;-71
2022/11/29 04:26:33;;;;;;;236.48;28.42;;;;;;;;;;5132580;27;20100;-71
2022/11/29 04:29:08;;;;;;;157.18;25.80;;;;;;;;;;5129928;27;20051;-72
2022/11/29 04:31:40;;;;;;;184.55;26.15;;;;;;;;;;5119130;27;20483;-72
2022/11/29 04:34:15;;;;;;;235.30;28.25;;;;;;;;;;5131728;27;20057;-72
2022/11/29 04:36:41;;;;;;;196.48;26.83;;;;;;;;;;5132682;28;20054;-72
2022/11/29 04:39:13;;;;;;;136.40;25.80;;;;;;;;;;5132351;28;20043;-73
2022/11/29 04:41:58;;;;;;;190.45;26.50;;;;;;;;;;5129476;28;20397;-72
2022/11/29 04:44:35;;;;;;;273.85;27.95;;;;;;;;;;5131827;28;20486;-72
2022/11/29 04:47:17;;;;;;;242.30;27.73;;;;;;;;;;5130406;28;20092;-72
2022/11/29 04:50:02;;;;;;;172.85;25.10;;;;;;;;;;5129036;28;20050;-72
2022/11/29 04:52:46;;;;;;;154.77;24.00;;;;;;;;;;5131410;28;20039;-71
2022/11/29 04:55:37;;;;;;;113.25;21.42;;;;;;;;;;5128654;28;20043;-71
2022/11/29 04:58:06;;;;;;;233.00;26.52;;;;;;;;;;5132107;28;20077;-72
2022/11/29 05:00:37;;;;;;;204.23;24.48;;;;;;;;;;5131283;28;20051;-71
2022/11/29 05:03:07;;;;;;;116.72;21.45;;;;;;;;;;5129076;28;20123;-72
2022/11/29 05:05:42;;;;;;;308.63;28.30;;;;;;;;;;5116290;28;20042;-71
2022/11/29 05:08:13;;;;;;;227.73;25.88;;;;;;;;;;5123755;28;20051;-71
2022/11/29 05:10:39;;;;;;;;;;;;;;;;;;5130786;28;20079;-72
2022/11/29 05:13:10;;;;;;;203.18;24.15;;;;;;;;;;5132360;28;20279;-72
2022/11/29 05:15:49;;;;;;;302.85;28.80;;;;;;;;;;5133097;28;20091;-72
2022/11/29 05:18:18;;;;;;;201.10;25.10;;;;;;;;;;5129298;28;20059;-72
2022/11/29 05:21:03;;;;;;;220.63;26.65;;;;;;;;;;5132063;28;20035;-72
2022/11/29 05:23:49;;;;;;;116.78;23.73;;;;;;;;;;5132306;28;20082;-71
2022/11/29 05:26:37;;;;;;;172.50;26.35;;;;;;;;;;5097004;28;20043;-72
2022/11/29 05:29:06;;;;;;;136.98;24.10;;;;;;;;;;5133654;27;20051;-72
2022/11/29 05:31:35;;;;;;;170.13;26.08;;;;;;;;;;5118032;27;20503;-71
2022/11/29 05:34:19;;;;;;;182.23;26.23;;;;;;;;;;5134957;27;20039;-72
2022/11/29 05:36:45;;;;;;;180.07;25.92;;;;;;;;;;5135002;27;20046;-72
2022/11/29 05:39:17;;;;;;;125.15;24.38;;;;;;;;;;5132810;27;20039;-71
2022/11/29 05:42:03;;;;;;;151.00;25.73;;;;;;;;;;5135877;27;20066;-71
2022/11/29 05:44:42;;;;;;;113.03;25.50;;;;;;;;;;5129362;27;20418;-71
2022/11/29 05:47:09;;;;;;;150.73;25.80;;;;;;;;;;5132872;27;20058;-71
2022/11/29 05:49:38;;;;;;;163.82;26.52;;;;;;;;;;5133566;27;20047;-71
2022/11/29 05:52:13;;;;;;;266.27;28.50;;;;;;;;;;5099868;27;20043;-72
2022/11/29 05:54:47;;;;;;;175.02;24.08;;;;;;;;;;5135674;27;20482;-72
2022/11/29 05:57:38;;;;;;;164.18;24.58;;;;;;;;;;5132869;27;20070;-71
2022/11/29 06:00:06;;;;;;;228.52;26.33;;;;;;;;;;5135705;27;20492;-71
2022/11/29 06:02:32;;;;;;;245.10;25.52;;;;;;;;;;5133638;27;20051;-71
2022/11/29 06:05:21;;;;;;;286.75;26.83;;;;;;;;;;5134339;27;20091;-71
2022/11/29 06:07:54;;;;;;;298.13;29.38;;;;;;;;;;5129615;27;20051;-72
2022/11/29 06:10:22;;;;;;;170.63;25.65;;;;;;;;;;5134620;27;20035;-71
2022/11/29 06:12:59;;;;;;;119.20;23.02;;;;;;;;;;5135086;27;20491;-72
2022/11/29 06:15:33;;;;;;;120.80;24.08;;;;;;;;;;5133214;27;20035;-72
2022/11/29 06:18:20;;;;;;;174.77;24.48;;;;;;;;;;5133559;27;20085;-72
2022/11/29 06:20:47;;;;;;;173.57;26.15;;;;;;;;;;5133076;27;20054;-72
2022/11/29 06:23:23;;;;;;;175.60;25.10;;;;;;;;;;5130650;27;20043;-72
2022/11/29 06:26:08;;;;;;;221.68;27.40;;;;;;;;;;5133577;27;20039;-71
2022/11/29 06:28:43;;;;;;;112.15;24.15;;;;;;;;;;5134967;27;20103;-71
2022/11/29 06:31:19;;;;;;;165.90;23.80;;;;;;;;;;5119044;27;20120;-71
2022/11/29 06:33:58;;;;;;;172.55;25.05;;;;;;;;;;5117145;27;20043;-72
2022/11/29 06:36:42;;;;;;;178.32;24.35;;;;;;;;;;5133932;27;20039;-72
2022/11/29 06:39:09;;;;;;;128.45;23.35;;;;;;;;;;5122384;27;20383;-72
2022/11/29 06:41:36;;;;;;;343.38;29.52;;;;;;;;;;5134042;27;20039;-71
2022/11/29 06:44:02;;;;;;;113.35;23.58;;;;;;;;;;5133730;27;20043;-71
2022/11/29 06:46:47;;;;;;;238.88;26.63;;;;;;;;;;5133040;27;20042;-71
2022/11/29 06:49:16;;;;;;;132.00;22.67;;;;;;;;;;5129016;27;20035;-71
2022/11/29 06:51:48;;;;;;;172.30;25.65;;;;;;;;;;5135068;27;20054;-71
2022/11/29 06:54:23;;;;;;;278.13;27.70;;;;;;;;;;5133842;27;20039;-72
2022/11/29 06:56:54;;;;;;;206.63;26.48;;;;;;;;;;5133188;27;20517;-72
2022/11/29 06:59:29;;;;;;;119.38;24.13;;;;;;;;;;5133905;27;20054;-72
2022/11/29 07:01:58;;;;;;;194.68;25.42;;;;;;;;;;5130134;27;20070;-71
2022/11/29 07:04:29;;;;;;;201.63;25.52;;;;;;;;;;5127250;27;20035;-71
2022/11/29 07:06:55;;;;;;;284.15;27.83;;;;;;;;;;5128247;27;20103;-71
2022/11/29 07:09:25;;;;;;;257.60;27.02;;;;;;;;;;5132055;27;20035;-71
2022/11/29 07:11:51;;;;;;;261.02;27.27;;;;;;;;;;5126783;27;20035;-71
2022/11/29 07:14:17;;;;;;;144.27;26.15;;;;;;;;;;5134399;27;20047;-72
2022/11/29 07:16:49;;;;;;;383.48;29.65;;;;;;;;;;5133450;27;20050;-72
2022/11/29 07:19:34;;;;;;;242.73;27.05;;;;;;;;;;5134058;27;20043;-71
2022/11/29 07:22:18;;;;;;;357.40;29.08;;;;;;;;;;5133038;27;20502;-72
2022/11/29 07:24:44;;;;;;;204.80;25.33;;;;;;;;;;5129567;27;20065;-72
2022/11/29 07:27:10;;;;;;;261.52;26.75;;;;;;;;;;5125940;27;20055;-71
2022/11/29 07:29:46;;;;;;;105.57;22.90;;;;;;;;;;5121275;27;20046;-72
2022/11/29 07:32:14;;;;;;;77.95;21.83;;;;;;;;;;5131379;27;20039;-71
2022/11/29 07:34:40;;;;;;;142.80;25.45;;;;;;;;;;5122012;27;20143;-71
2022/11/29 07:37:09;;;;;;;88.57;23.17;;;;;;;;;;5133098;27;20395;-72
2022/11/29 07:39:54;;;;;;;77.30;22.65;;;;;;;;;;5133610;27;20422;-72
2022/11/29 07:42:26;;;;;;;63.50;19.10;;;;;;;;;;5132264;27;20035;-72
2022/11/29 07:45:03;;;;;;;105.35;22.88;;;;;;;;;;5133222;27;20104;-71
2022/11/29 07:47:29;;;;;;;128.45;25.33;;;;;;;;;;5133980;27;20039;-72
2022/11/29 07:49:55;;;;;;;73.70;21.65;;;;;;;;;;5131978;27;20088;-72
2022/11/29 07:52:21;;;;;;;106.30;23.98;;;;;;;;;;5132542;27;20114;-72
2022/11/29 07:54:47;;;;;;;92.80;24.02;;;;;;;;;;5132009;27;20043;-72
2022/11/29 07:57:13;;;;;;;122.35;23.85;;;;;;;;;;5132658;27;20043;-72
2022/11/29 07:59:39;;;;;;;97.75;25.42;;;;;;;;;;5133759;27;20043;-72
2022/11/29 08:02:05;;;;;;;104.07;27.33;;;;;;;;;;5133325;27;20054;-72
2022/11/29 08:04:32;;;;;;;73.32;27.50;;;;;;;;;;5129198;27;20035;-72
2022/11/29 08:06:58;;;;;;;127.70;31.67;;;;;;;;;;5105814;27;20050;-72
2022/11/29 08:09:25;;;;;;;110.22;30.27;;;;;;;;;;5133263;27;20068;-72
2022/11/29 08:11:51;;;;;;;109.70;27.60;;;;;;;;;;5132829;27;20039;-72
2022/11/29 08:14:17;;;;;;;178.60;28.63;;;;;;;;;;5132948;27;20039;-72
2022/11/29 08:16:43;;;;;;;107.25;24.33;;;;;;;;;;5109336;27;20047;-72
2022/11/29 08:19:09;;;;;;;118.75;26.52;;;;;;;;;;5132711;27;20047;-72
2022/11/29 08:21:35;;;;;;;111.78;25.05;;;;;;;;;;5122759;27;20036;-72
2022/11/29 08:24:01;;;;;;;75.78;23.45;;;;;;;;;;5124978;27;20040;-72
2022/11/29 08:26:28;;;;;;;94.28;23.80;;;;;;;;;;5125297;27;20044;-72
2022/11/29 08:28:55;;;;;;;96.22;23.35;;;;;;;;;;5133248;27;20113;-72
2022/11/29 08:31:21;;;;;;;108.63;23.95;;;;;;;;;;5133241;27;20082;-72
2022/11/29 08:33:47;;;;;;;81.60;21.65;;;;;;;;;;5132491;27;20035;-72
2022/11/29 08:36:15;;;;;;;107.32;23.95;;;;;;;;;;5130274;27;20050;-73
2022/11/29 08:38:41;;;;;;;107.75;24.80;;;;;;;;;;5107262;28;20489;-72
2022/11/29 08:41:09;;;;;;;99.53;23.90;;;;;;;;;;5114227;28;20047;-72
2022/11/29 08:43:35;;;;;;;137.32;26.60;;;;;;;;;;5131494;28;20378;-72
2022/11/29 08:46:01;;;;;;;121.47;25.92;;;;;;;;;;5130194;28;20055;-72
2022/11/29 08:48:27;;;;;;;95.03;23.70;;;;;;;;;;5125092;28;20042;-72
2022/11/29 08:50:54;;;;;;;71.85;23.77;;;;;;;;;;5131241;28;20075;-72
2022/11/29 08:56:05;;;;;;;71.63;22.67;;;;;;;;;;5133155;28;20047;-72
2022/11/29 08:58:31;;;;;;;106.45;26.83;;;;;;;;;;5130233;28;20042;-72
2022/11/29 09:00:58;;;;;;;76.50;24.50;;;;;;;;;;5130557;28;20466;-72
2022/11/29 09:04:24;;;;;;;107.90;25.70;;;;;;;;;;5134114;27;20043;-72
2022/11/29 09:06:19;;;;;;;66.45;21.85;;;;;;;;;;5122969;27;20407;-71
2022/11/29 09:08:45;;;;;;;65.18;21.70;;;;;;;;;;5135216;27;20489;-72
2022/11/29 09:11:16;;;;;;;75.25;22.92;;;;;;;;;;5136134;27;20043;-72
2022/11/29 09:13:46;;;;;;;58.93;20.60;;;;;;;;;;5136021;27;20054;-72
2022/11/29 09:16:13;;;;;;;74.35;23.50;;;;;;;;;;5135150;27;20074;-71
2022/11/29 09:18:40;;;;;;;77.32;22.15;;;;;;;;;;5136263;27;20039;-72
2022/11/29 09:21:07;;;;;;;61.28;21.48;;;;;;;;;;5124113;27;20079;-72
2022/11/29 09:23:33;;;;;;;51.60;20.05;;;;;;;;;;5116129;28;20082;-72
2022/11/29 09:25:59;;;;;;;67.70;22.15;;;;;;;;;;5116140;28;20105;-72
2022/11/29 09:28:26;;;;;;;53.15;20.15;;;;;;;;;;5132949;27;20047;-73
2022/11/29 09:30:52;;;;;;;52.53;20.65;;;;;;;;;;5122386;27;20514;-73
2022/11/29 09:33:18;;;;;;;67.57;21.75;;;;;;;;;;5135817;27;20048;-73
2022/11/29 09:35:44;;;;;;;58.17;21.42;;;;;;;;;;5132792;27;20031;-73
2022/11/29 09:38:11;;;;;;;59.25;20.15;;;;;;;;;;5115605;28;20512;-73
2022/11/29 09:40:39;;;;;;;47.72;19.67;;;;;;;;;;5115682;28;20043;-73
2022/11/29 09:43:22;;;;;;;50.10;20.80;;;;;;;;;;5129931;27;20069;-73
2022/11/29 09:45:51;;;;;;;41.78;19.23;;;;;;;;;;5130734;27;20047;-73
2022/11/29 09:48:17;;;;;;;44.88;19.05;;;;;;;;;;5118423;27;20043;-73
2022/11/29 09:50:47;;;;;;;42.58;18.08;;;;;;;;;;5135469;27;20083;-73
2022/11/29 09:53:33;;;;;;;46.50;20.08;;;;;;;;;;5126381;27;20081;-73
2022/11/29 09:56:12;;;;;;;44.47;18.13;;;;;;;;;;5134470;27;20039;-73
2022/11/29 09:58:45;;;;;;;38.72;17.50;;;;;;;;;;5136148;27;20051;-73
2022/11/29 10:01:16;;;;;;;43.00;18.73;;;;;;;;;;5135748;27;20055;-73
2022/11/29 10:03:45;;;;;;;38.50;18.08;;;;;;;;;;5135390;27;20035;-73
2022/11/29 10:06:17;;;;;;;44.53;18.88;;;;;;;;;;5129982;27;20043;-73
2022/11/29 10:08:47;;;;;;;40.17;17.73;;;;;;;;;;5135105;27;20043;-73
2022/11/29 10:11:27;;;;;;;44.55;18.08;;;;;;;;;;5127198;27;20050;-73
2022/11/29 10:14:02;;;;;;;30.95;15.60;;;;;;;;;;5128825;27;20039;-73
2022/11/29 10:16:41;;;;;;;31.30;14.52;;;;;;;;;;5129265;27;20057;-73
2022/11/29 10:19:14;;;;;;;35.25;14.98;;;;;;;;;;5115146;28;20171;-73
2022/11/29 10:21:42;;;;;;;28.13;14.00;;;;;;;;;;5121223;27;20044;-73
2022/11/29 10:24:17;;;;;;;34.22;14.35;;;;;;;;;;5135057;27;20044;-73
2022/11/29 10:26:43;;;;;;;29.58;14.43;;;;;;;;;;5135225;27;20095;-73
2022/11/29 10:29:13;;;;;;;29.88;14.35;;;;;;;;;;5129416;27;20055;-73
2022/11/29 10:31:42;;;;;;;29.92;13.88;;;;;;;;;;5118787;27;20043;-73
2022/11/29 10:34:30;;;;;;;34.45;15.38;;;;;;;;;;5117856;27;20123;-73
2022/11/29 10:37:01;;;;;;;33.05;14.60;;;;;;;;;;5125115;27;20509;-73
2022/11/29 10:39:30;;;;;;;34.45;14.80;;;;;;;;;;5135140;27;20077;-73
2022/11/29 10:41:59;;;;;;;30.98;14.57;;;;;;;;;;5116309;27;20461;-73
2022/11/29 10:44:26;;;;;;;34.75;14.82;;;;;;;;;;5133888;27;20035;-73
2022/11/29 10:46:52;;;;;;;33.78;14.88;;;;;;;;;;5133146;27;20547;-73
2022/11/29 10:49:20;;;;;;;33.35;15.43;;;;;;;;;;5134227;27;20160;-73
2022/11/29 10:51:46;;;;;;;36.65;15.65;;;;;;;;;;5134188;27;20082;-73
2022/11/29 10:54:22;;;;;;;31.88;14.25;;;;;;;;;;5122842;27;20498;-73
2022/11/29 10:56:48;;;;;;;30.90;13.77;;;;;;;;;;5122039;27;20050;-73
2022/11/29 10:59:21;;;;;;;30.50;14.13;;;;;;;;;;5134001;27;20435;-73
2022/11/29 11:01:48;;;;;;;33.17;14.32;;;;;;;;;;5134514;27;20134;-73
2022/11/29 11:04:16;;;;;;;37.20;15.05;;;;;;;;;;5121205;27;20079;-73
2022/11/29 11:06:55;;;;;;;34.72;13.98;;;;;;;;;;5120668;27;20043;-73
2022/11/29 11:09:24;;;;;;;27.98;13.75;;;;;;;;;;5132416;27;20039;-73
2022/11/29 11:11:55;;;;;;;33.42;13.30;;;;;;;;;;5130679;27;20035;-73
2022/11/29 11:14:29;;;;;;;26.38;12.85;;;;;;;;;;5124007;27;20043;-73
2022/11/29 11:16:55;;;;;;;30.10;13.32;;;;;;;;;;5124783;27;20054;-72
2022/11/29 11:19:24;;;;;;;32.38;13.80;;;;;;;;;;5127807;27;20042;-73
2022/11/29 11:21:50;;;;;;;27.83;13.52;;;;;;;;;;5133732;27;20485;-73
2022/11/29 11:24:24;;;;;;;28.85;13.30;;;;;;;;;;5113703;28;21049;-73
2022/11/29 11:26:50;;;;;;;28.58;13.30;;;;;;;;;;5109351;27;20043;-76
2022/11/29 11:29:17;;;;;;;27.48;13.30;;;;;;;;;;5133706;27;20470;-74
2022/11/29 11:31:50;;;;;;;34.95;13.13;;;;;;;;;;5129087;27;20047;-73
2022/11/29 11:34:27;;;;;;;32.30;12.80;;;;;;;;;;5113788;27;20044;-73
2022/11/29 11:36:54;;;;;;;39.53;13.93;;;;;;;;;;5122292;27;20114;-73
2022/11/29 11:39:22;;;;;;;29.67;13.35;;;;;;;;;;5120507;27;20448;-73
2022/11/29 11:44:37;;;;;;;34.90;14.32;;;;;;;;;;5128815;27;20044;-73
2022/11/29 11:47:05;;;;;;;32.38;14.23;;;;;;;;;;5133954;27;20200;-73
2022/11/29 11:49:34;;;;;;;28.77;13.75;;;;;;;;;;5133865;27;20039;-72
2022/11/29 11:52:01;;;;;;;32.75;13.50;;;;;;;;;;5133765;27;20047;-73
2022/11/29 11:54:28;;;;;;;34.00;14.32;;;;;;;;;;5133585;27;20438;-73
2022/11/29 11:56:55;;;;;;;31.42;14.25;;;;;;;;;;5115087;27;20051;-73
2022/11/29 11:59:23;;;;;;;29.55;12.90;;;;;;;;;;5131464;27;20133;-73
2022/11/29 12:01:49;;;;;;;29.55;13.32;;;;;;;;;;5112893;28;20059;-73
2022/11/29 12:04:21;;;;;;;32.60;13.68;;;;;;;;;;5132345;27;20051;-72
2022/11/29 12:06:49;;;;;;;34.88;13.70;;;;;;;;;;5132004;27;20066;-73
2022/11/29 12:09:24;;;;;;;31.95;14.18;;;;;;;;;;5133227;27;20058;-73
2022/11/29 12:11:54;;;;;;;34.97;14.00;;;;;;;;;;5127178;27;20039;-73
2022/11/29 12:14:25;;;;;;;36.03;14.13;;;;;;;;;;5133262;27;20043;-73
2022/11/29 12:16:53;;;;;;;37.95;14.70;;;;;;;;;;5132985;27;20039;-73
2022/11/29 12:19:23;;;;;;;33.25;13.60;;;;;;;;;;5132317;27;20050;-73
2022/11/29 12:21:51;;;;;;;29.13;13.00;;;;;;;;;;5126308;27;20498;-73
2022/11/29 12:24:37;;;;;;;31.83;13.27;;;;;;;;;;5117806;27;20105;-73
2022/11/29 12:27:04;;;;;;;37.28;14.00;;;;;;;;;;5108656;27;20055;-73
2022/11/29 12:29:32;;;;;;;33.15;13.32;;;;;;;;;;5129536;27;20553;-73
2022/11/29 12:32:08;;;;;;;39.95;14.32;;;;;;;;;;5124372;27;20499;-73
2022/11/29 12:34:44;;;;;;;32.20;14.48;;;;;;;;;;5132651;27;20074;-73
2022/11/29 12:37:29;;;;;;;37.53;14.95;;;;;;;;;;5132759;27;20050;-73
2022/11/29 12:40:05;;;;;;;37.97;14.65;;;;;;;;;;5132969;27;20082;-73
2022/11/29 12:42:36;;;;;;;32.70;12.82;;;;;;;;;;5130471;28;20036;-72
2022/11/29 12:45:21;;;;;;;35.38;13.80;;;;;;;;;;5132293;28;20039;-73
2022/11/29 12:48:12;;;;;;;36.63;13.30;;;;;;;;;;5132974;28;20046;-73
2022/11/29 12:50:57;;;;;;;38.47;14.00;;;;;;;;;;5049422;28;20081;-73
2022/11/29 12:53:29;;;;;;;33.13;13.20;;;;;;;;;;5049425;28;20411;-73
2022/11/29 12:56:14;;;;;;;38.95;14.48;;;;;;;;;;5049087;28;20061;-73
2022/11/29 12:58:49;;;;;;;36.92;14.98;;;;;;;;;;5047433;28;20554;-73
2022/11/29 13:01:29;;;;;;;34.90;14.45;;;;;;;;;;5049043;28;20056;-73
2022/11/29 13:04:05;;;;;;;41.33;15.27;;;;;;;;;;5052654;28;20045;-73
2022/11/29 13:06:43;;;;;;;41.35;14.82;;;;;;;;;;5049284;28;20048;-73
2022/11/29 13:09:28;;;;;;;32.85;15.35;;;;;;;;;;5049538;28;20045;-73
2022/11/29 13:11:54;;;;;;;35.33;14.93;;;;;;;;;;5029504;28;20053;-73
2022/11/29 13:14:39;;;;;;;38.08;16.02;;;;;;;;;;5049208;28;20057;-73
2022/11/29 13:17:09;;;;;;;42.88;17.25;;;;;;;;;;5050146;28;20518;-73
2022/11/29 13:19:42;;;;;;;36.50;16.60;;;;;;;;;;5049427;28;20044;-73
2022/11/29 13:22:20;;;;;;;39.72;16.58;;;;;;;;;;5051465;28;20360;-73
2022/11/29 13:24:54;;;;;;;37.33;16.63;;;;;;;;;;5048607;28;20072;-73
2022/11/29 13:27:26;;;;;;;32.90;16.50;;;;;;;;;;5073464;28;20051;-73
2022/11/29 13:29:53;;;;;;;27.02;15.70;;;;;;;;;;5112063;28;20101;-73
2022/11/29 13:32:29;;;;;;;29.42;16.70;;;;;;;;;;5112183;28;20052;-73
2022/11/29 13:34:58;;;;;;;31.38;16.50;;;;;;;;;;5132664;28;20401;-73
2022/11/29 13:37:32;;;;;;;27.17;16.42;;;;;;;;;;5131366;28;20409;-73
2022/11/29 13:40:03;;;;;;;22.17;16.35;;;;;;;;;;5132519;28;20047;-73
2022/11/29 13:42:49;;;;;;;25.88;16.92;;;;;;;;;;5132607;28;20047;-73
2022/11/29 13:45:15;;;;;;;25.65;15.82;;;;;;;;;;5132503;28;20051;-73
2022/11/29 13:47:52;;;;;;;23.20;16.40;;;;;;;;;;5131697;28;20058;-73
2022/11/29 13:50:38;;;;;;;26.42;16.35;;;;;;;;;;5116660;27;20047;-73
2022/11/29 13:53:15;;;;;;;27.73;16.92;;;;;;;;;;5126231;27;20515;-73
2022/11/29 13:55:48;;;;;;;24.83;16.52;;;;;;;;;;5135564;27;20081;-73
2022/11/29 13:58:14;;;;;;;21.35;15.60;;;;;;;;;;5124832;27;20097;-73
2022/11/29 14:00:43;;;;;;;23.80;17.25;;;;;;;;;;5115305;28;20047;-73
2022/11/29 14:03:24;;;;;;;21.77;16.02;;;;;;;;;;5115228;28;20410;-73
2022/11/29 14:06:09;;;;;;;20.65;14.18;;;;;;;;;;5118145;27;20043;-73
2022/11/29 14:08:41;;;;;;;21.83;13.93;;;;;;;;;;5134112;27;20045;-73
2022/11/29 14:11:13;;;;;;;22.98;15.13;;;;;;;;;;5135863;27;20054;-73
2022/11/29 14:13:52;;;;;;;21.50;14.45;;;;;;;;;;5135545;27;20035;-73
2022/11/29 14:16:27;;;;;;;24.95;17.02;;;;;;;;;;5133975;27;20043;-73
2022/11/29 14:19:11;;;;;;;23.95;16.92;;;;;;;;;;5135560;27;20393;-73
2022/11/29 14:21:56;;;;;;;23.63;15.93;;;;;;;;;;5132616;27;20054;-73
2022/11/29 14:24:34;;;;;;;23.00;16.08;;;;;;;;;;5124436;27;20065;-73
2022/11/29 14:27:06;;;;;;;21.75;15.68;;;;;;;;;;5128500;27;20053;-72
2022/11/29 14:32:29;;;;;;;21.55;15.32;;;;;;;;;;5135248;27;20108;-73
2022/11/29 14:35:02;;;;;;;29.60;18.80;;;;;;;;;;5125829;27;20054;-73
2022/11/29 14:37:33;;;;;;;26.77;18.75;;;;;;;;;;5115192;27;20047;-73
2022/11/29 14:40:01;;;;;;;22.42;17.38;;;;;;;;;;5126112;27;20040;-73
2022/11/29 14:42:28;;;;;;;23.58;17.23;;;;;;;;;;5114723;28;20050;-73
2022/11/29 14:44:57;;;;;;;21.95;17.00;;;;;;;;;;5122066;27;20413;-73
2022/11/29 14:47:30;;;;;;;17.98;14.45;;;;;;;;;;5134955;27;20043;-73